sensor_id;sensor_type;location;lat;lon;timestamp;P1;durP1;ratioP1;P2;durP2;ratioP2
68938;SDS011;59064;45.294;11.816;2023-06-10T00:02:08;11.90;;;9.00;;
68938;SDS011;59064;45.294;11.816;2023-06-10T00:04:33;11.60;;;8.50;;
68938;SDS011;59064;45.294;11.816;2023-06-10T00:07:02;11.20;;;8.00;;
68938;SDS011;59064;45.294;11.816;2023-06-10T00:09:40;11.30;;;8.80;;
68938;SDS011;59064;45.294;11.816;2023-06-10T00:12:06;11.10;;;8.80;;
68938;SDS011;59064;45.294;11.816;2023-06-10T00:14:36;11.40;;;8.50;;
68938;SDS011;59064;45.294;11.816;2023-06-10T00:17:06;11.60;;;8.00;;
68938;SDS011;59064;45.294;11.816;2023-06-10T00:19:38;11.50;;;7.40;;
68938;SDS011;59064;45.294;11.816;2023-06-10T00:22:06;9.10;;;6.50;;
68938;SDS011;59064;45.294;11.816;2023-06-10T00:24:33;9.70;;;6.00;;
68938;SDS011;59064;45.294;11.816;2023-06-10T00:27:00;10.50;;;6.30;;
68938;SDS011;59064;45.294;11.816;2023-06-10T00:29:25;9.10;;;6.40;;
68938;SDS011;59064;45.294;11.816;2023-06-10T00:31:51;10.40;;;6.60;;
68938;SDS011;59064;45.294;11.816;2023-06-10T00:34:18;9.90;;;6.70;;
68938;SDS011;59064;45.294;11.816;2023-06-10T00:36:44;8.90;;;5.80;;
68938;SDS011;59064;45.294;11.816;2023-06-10T00:39:10;8.70;;;6.20;;
68938;SDS011;59064;45.294;11.816;2023-06-10T00:41:35;8.00;;;6.10;;
68938;SDS011;59064;45.294;11.816;2023-06-10T00:44:02;10.10;;;6.50;;
68938;SDS011;59064;45.294;11.816;2023-06-10T00:46:28;9.80;;;6.50;;
68938;SDS011;59064;45.294;11.816;2023-06-10T00:48:53;10.40;;;6.40;;
68938;SDS011;59064;45.294;11.816;2023-06-10T00:51:19;8.50;;;6.00;;
68938;SDS011;59064;45.294;11.816;2023-06-10T00:53:45;9.60;;;6.70;;
68938;SDS011;59064;45.294;11.816;2023-06-10T00:56:11;11.20;;;7.30;;
68938;SDS011;59064;45.294;11.816;2023-06-10T00:58:38;12.20;;;7.20;;
68938;SDS011;59064;45.294;11.816;2023-06-10T01:01:03;12.90;;;7.30;;
68938;SDS011;59064;45.294;11.816;2023-06-10T01:03:30;11.30;;;7.00;;
68938;SDS011;59064;45.294;11.816;2023-06-10T01:06:01;11.30;;;7.90;;
68938;SDS011;59064;45.294;11.816;2023-06-10T01:11:47;11.40;;;7.70;;
68938;SDS011;59064;45.294;11.816;2023-06-10T01:14:20;9.80;;;7.40;;
68938;SDS011;59064;45.294;11.816;2023-06-10T01:16:47;12.50;;;7.80;;
68938;SDS011;59064;45.294;11.816;2023-06-10T01:19:13;15.20;;;8.70;;
68938;SDS011;59064;45.294;11.816;2023-06-10T01:21:42;12.00;;;8.10;;
68938;SDS011;59064;45.294;11.816;2023-06-10T01:24:13;10.40;;;8.20;;
68938;SDS011;59064;45.294;11.816;2023-06-10T01:26:39;15.30;;;9.30;;
68938;SDS011;59064;45.294;11.816;2023-06-10T01:29:09;10.50;;;7.40;;
68938;SDS011;59064;45.294;11.816;2023-06-10T01:31:47;11.40;;;7.30;;
68938;SDS011;59064;45.294;11.816;2023-06-10T01:34:17;12.10;;;7.00;;
68938;SDS011;59064;45.294;11.816;2023-06-10T01:36:47;10.50;;;7.00;;
68938;SDS011;59064;45.294;11.816;2023-06-10T01:39:15;10.90;;;7.40;;
68938;SDS011;59064;45.294;11.816;2023-06-10T01:41:42;10.40;;;7.00;;
68938;SDS011;59064;45.294;11.816;2023-06-10T01:44:09;10.40;;;7.30;;
68938;SDS011;59064;45.294;11.816;2023-06-10T01:46:35;11.20;;;7.10;;
68938;SDS011;59064;45.294;11.816;2023-06-10T01:49:01;9.70;;;6.50;;
68938;SDS011;59064;45.294;11.816;2023-06-10T01:51:26;8.60;;;6.50;;
68938;SDS011;59064;45.294;11.816;2023-06-10T01:53:52;10.90;;;6.30;;
68938;SDS011;59064;45.294;11.816;2023-06-10T01:56:18;10.60;;;6.80;;
68938;SDS011;59064;45.294;11.816;2023-06-10T01:58:47;9.30;;;6.70;;
68938;SDS011;59064;45.294;11.816;2023-06-10T02:01:13;10.40;;;7.00;;
68938;SDS011;59064;45.294;11.816;2023-06-10T02:03:39;12.60;;;6.70;;
68938;SDS011;59064;45.294;11.816;2023-06-10T02:06:05;10.40;;;7.30;;
68938;SDS011;59064;45.294;11.816;2023-06-10T02:08:30;11.70;;;6.90;;
68938;SDS011;59064;45.294;11.816;2023-06-10T02:10:56;10.50;;;6.60;;
68938;SDS011;59064;45.294;11.816;2023-06-10T02:13:21;12.20;;;7.70;;
68938;SDS011;59064;45.294;11.816;2023-06-10T02:15:47;9.20;;;6.40;;
68938;SDS011;59064;45.294;11.816;2023-06-10T02:18:12;7.50;;;5.80;;
68938;SDS011;59064;45.294;11.816;2023-06-10T02:20:38;14.20;;;6.80;;
68938;SDS011;59064;45.294;11.816;2023-06-10T02:23:06;10.80;;;6.10;;
68938;SDS011;59064;45.294;11.816;2023-06-10T02:25:32;11.40;;;7.10;;
68938;SDS011;59064;45.294;11.816;2023-06-10T02:27:57;11.90;;;6.90;;
68938;SDS011;59064;45.294;11.816;2023-06-10T02:30:23;9.60;;;7.30;;
68938;SDS011;59064;45.294;11.816;2023-06-10T02:32:49;9.70;;;6.10;;
68938;SDS011;59064;45.294;11.816;2023-06-10T02:35:15;10.10;;;7.00;;
68938;SDS011;59064;45.294;11.816;2023-06-10T02:37:42;11.70;;;6.80;;
68938;SDS011;59064;45.294;11.816;2023-06-10T02:40:08;9.60;;;6.00;;
68938;SDS011;59064;45.294;11.816;2023-06-10T02:42:35;9.00;;;6.40;;
68938;SDS011;59064;45.294;11.816;2023-06-10T02:45:01;11.00;;;6.40;;
68938;SDS011;59064;45.294;11.816;2023-06-10T02:47:27;10.40;;;7.00;;
68938;SDS011;59064;45.294;11.816;2023-06-10T02:49:52;10.60;;;7.00;;
68938;SDS011;59064;45.294;11.816;2023-06-10T02:52:17;9.10;;;6.10;;
68938;SDS011;59064;45.294;11.816;2023-06-10T02:54:43;10.00;;;6.60;;
68938;SDS011;59064;45.294;11.816;2023-06-10T02:57:10;8.70;;;5.70;;
68938;SDS011;59064;45.294;11.816;2023-06-10T02:59:35;8.60;;;5.90;;
68938;SDS011;59064;45.294;11.816;2023-06-10T03:02:01;9.20;;;5.90;;
68938;SDS011;59064;45.294;11.816;2023-06-10T03:04:26;8.00;;;5.70;;
68938;SDS011;59064;45.294;11.816;2023-06-10T03:06:54;9.80;;;6.20;;
68938;SDS011;59064;45.294;11.816;2023-06-10T03:09:20;8.80;;;5.80;;
68938;SDS011;59064;45.294;11.816;2023-06-10T03:11:45;10.10;;;6.80;;
68938;SDS011;59064;45.294;11.816;2023-06-10T03:14:11;9.00;;;6.30;;
68938;SDS011;59064;45.294;11.816;2023-06-10T03:16:36;10.80;;;6.50;;
68938;SDS011;59064;45.294;11.816;2023-06-10T03:19:06;10.50;;;6.90;;
68938;SDS011;59064;45.294;11.816;2023-06-10T03:21:33;11.50;;;7.70;;
68938;SDS011;59064;45.294;11.816;2023-06-10T03:23:59;9.90;;;6.40;;
68938;SDS011;59064;45.294;11.816;2023-06-10T03:26:25;10.20;;;7.00;;
68938;SDS011;59064;45.294;11.816;2023-06-10T03:28:52;9.90;;;7.20;;
68938;SDS011;59064;45.294;11.816;2023-06-10T03:31:18;11.70;;;7.00;;
68938;SDS011;59064;45.294;11.816;2023-06-10T03:33:44;10.60;;;6.10;;
68938;SDS011;59064;45.294;11.816;2023-06-10T03:36:09;9.50;;;6.40;;
68938;SDS011;59064;45.294;11.816;2023-06-10T03:38:35;7.50;;;5.20;;
68938;SDS011;59064;45.294;11.816;2023-06-10T03:41:00;10.10;;;6.60;;
68938;SDS011;59064;45.294;11.816;2023-06-10T03:43:27;9.30;;;6.40;;
68938;SDS011;59064;45.294;11.816;2023-06-10T03:45:52;7.80;;;6.30;;
68938;SDS011;59064;45.294;11.816;2023-06-10T03:48:18;10.80;;;7.20;;
68938;SDS011;59064;45.294;11.816;2023-06-10T03:50:44;10.30;;;6.30;;
68938;SDS011;59064;45.294;11.816;2023-06-10T03:53:09;10.10;;;7.10;;
68938;SDS011;59064;45.294;11.816;2023-06-10T03:55:35;10.10;;;6.30;;
68938;SDS011;59064;45.294;11.816;2023-06-10T03:58:01;12.40;;;7.30;;
68938;SDS011;59064;45.294;11.816;2023-06-10T04:00:27;11.00;;;7.10;;
68938;SDS011;59064;45.294;11.816;2023-06-10T04:02:53;10.30;;;7.30;;
68938;SDS011;59064;45.294;11.816;2023-06-10T04:05:23;9.40;;;7.20;;
68938;SDS011;59064;45.294;11.816;2023-06-10T04:07:48;11.90;;;7.70;;
68938;SDS011;59064;45.294;11.816;2023-06-10T04:10:14;11.20;;;8.20;;
68938;SDS011;59064;45.294;11.816;2023-06-10T04:12:41;12.40;;;8.60;;
68938;SDS011;59064;45.294;11.816;2023-06-10T04:15:07;14.20;;;8.60;;
68938;SDS011;59064;45.294;11.816;2023-06-10T04:17:32;12.40;;;8.60;;
68938;SDS011;59064;45.294;11.816;2023-06-10T04:19:58;12.50;;;9.30;;
68938;SDS011;59064;45.294;11.816;2023-06-10T04:22:24;11.10;;;8.40;;
68938;SDS011;59064;45.294;11.816;2023-06-10T04:24:51;13.90;;;9.10;;
68938;SDS011;59064;45.294;11.816;2023-06-10T04:27:16;13.60;;;8.70;;
68938;SDS011;59064;45.294;11.816;2023-06-10T04:29:42;10.80;;;7.90;;
68938;SDS011;59064;45.294;11.816;2023-06-10T04:32:07;13.90;;;8.30;;
68938;SDS011;59064;45.294;11.816;2023-06-10T04:34:33;11.20;;;7.60;;
68938;SDS011;59064;45.294;11.816;2023-06-10T04:36:59;14.00;;;9.00;;
68938;SDS011;59064;45.294;11.816;2023-06-10T04:39:25;13.10;;;9.20;;
68938;SDS011;59064;45.294;11.816;2023-06-10T04:41:51;16.40;;;10.40;;
68938;SDS011;59064;45.294;11.816;2023-06-10T04:44:16;17.40;;;12.70;;
68938;SDS011;59064;45.294;11.816;2023-06-10T04:46:43;19.60;;;12.50;;
68938;SDS011;59064;45.294;11.816;2023-06-10T04:49:08;18.50;;;11.80;;
68938;SDS011;59064;45.294;11.816;2023-06-10T04:51:34;17.30;;;11.90;;
68938;SDS011;59064;45.294;11.816;2023-06-10T04:53:59;17.70;;;11.60;;
68938;SDS011;59064;45.294;11.816;2023-06-10T04:56:29;19.90;;;12.80;;
68938;SDS011;59064;45.294;11.816;2023-06-10T04:58:56;19.10;;;13.00;;
68938;SDS011;59064;45.294;11.816;2023-06-10T05:01:22;21.00;;;13.10;;
68938;SDS011;59064;45.294;11.816;2023-06-10T05:03:47;24.80;;;14.90;;
68938;SDS011;59064;45.294;11.816;2023-06-10T05:06:13;20.80;;;14.40;;
68938;SDS011;59064;45.294;11.816;2023-06-10T05:08:38;24.40;;;15.70;;
68938;SDS011;59064;45.294;11.816;2023-06-10T05:11:04;23.30;;;15.10;;
68938;SDS011;59064;45.294;11.816;2023-06-10T05:13:29;23.60;;;16.00;;
68938;SDS011;59064;45.294;11.816;2023-06-10T05:15:55;19.20;;;14.50;;
68938;SDS011;59064;45.294;11.816;2023-06-10T05:18:20;24.10;;;16.60;;
68938;SDS011;59064;45.294;11.816;2023-06-10T05:20:46;25.00;;;17.60;;
68938;SDS011;59064;45.294;11.816;2023-06-10T05:23:12;22.80;;;16.60;;
68938;SDS011;59064;45.294;11.816;2023-06-10T05:25:37;25.90;;;16.00;;
68938;SDS011;59064;45.294;11.816;2023-06-10T05:28:03;27.30;;;18.80;;
68938;SDS011;59064;45.294;11.816;2023-06-10T05:30:29;27.90;;;19.00;;
68938;SDS011;59064;45.294;11.816;2023-06-10T05:32:54;27.80;;;17.90;;
68938;SDS011;59064;45.294;11.816;2023-06-10T05:35:21;32.10;;;19.20;;
68938;SDS011;59064;45.294;11.816;2023-06-10T05:37:46;27.60;;;19.60;;
68938;SDS011;59064;45.294;11.816;2023-06-10T05:40:12;27.80;;;18.90;;
68938;SDS011;59064;45.294;11.816;2023-06-10T05:42:38;28.60;;;19.60;;
68938;SDS011;59064;45.294;11.816;2023-06-10T05:45:05;26.60;;;19.00;;
68938;SDS011;59064;45.294;11.816;2023-06-10T05:47:31;30.50;;;21.00;;
68938;SDS011;59064;45.294;11.816;2023-06-10T05:49:57;28.70;;;19.10;;
68938;SDS011;59064;45.294;11.816;2023-06-10T05:52:23;30.70;;;20.70;;
68938;SDS011;59064;45.294;11.816;2023-06-10T05:54:48;29.50;;;19.60;;
68938;SDS011;59064;45.294;11.816;2023-06-10T05:57:15;28.50;;;18.20;;
68938;SDS011;59064;45.294;11.816;2023-06-10T05:59:40;26.90;;;19.50;;
68938;SDS011;59064;45.294;11.816;2023-06-10T06:02:06;24.00;;;17.10;;
68938;SDS011;59064;45.294;11.816;2023-06-10T06:04:31;25.30;;;18.50;;
68938;SDS011;59064;45.294;11.816;2023-06-10T06:06:57;27.90;;;18.80;;
68938;SDS011;59064;45.294;11.816;2023-06-10T06:09:22;28.70;;;19.60;;
68938;SDS011;59064;45.294;11.816;2023-06-10T06:11:48;25.10;;;18.30;;
68938;SDS011;59064;45.294;11.816;2023-06-10T06:14:13;29.20;;;20.10;;
68938;SDS011;59064;45.294;11.816;2023-06-10T06:16:39;26.60;;;19.40;;
68938;SDS011;59064;45.294;11.816;2023-06-10T06:19:04;24.30;;;17.30;;
68938;SDS011;59064;45.294;11.816;2023-06-10T06:21:30;15.60;;;11.60;;
68938;SDS011;59064;45.294;11.816;2023-06-10T06:23:55;15.60;;;11.70;;
68938;SDS011;59064;45.294;11.816;2023-06-10T06:26:21;15.10;;;12.00;;
68938;SDS011;59064;45.294;11.816;2023-06-10T06:28:46;13.60;;;9.70;;
68938;SDS011;59064;45.294;11.816;2023-06-10T06:31:12;18.60;;;14.60;;
68938;SDS011;59064;45.294;11.816;2023-06-10T06:33:37;14.40;;;10.60;;
68938;SDS011;59064;45.294;11.816;2023-06-10T06:36:03;16.00;;;11.80;;
68938;SDS011;59064;45.294;11.816;2023-06-10T06:38:28;16.80;;;12.30;;
68938;SDS011;59064;45.294;11.816;2023-06-10T06:40:54;18.90;;;13.50;;
68938;SDS011;59064;45.294;11.816;2023-06-10T06:43:20;19.60;;;13.80;;
68938;SDS011;59064;45.294;11.816;2023-06-10T06:45:45;15.50;;;12.10;;
68938;SDS011;59064;45.294;11.816;2023-06-10T06:48:11;17.60;;;13.50;;
68938;SDS011;59064;45.294;11.816;2023-06-10T06:50:37;21.40;;;16.80;;
68938;SDS011;59064;45.294;11.816;2023-06-10T06:53:03;16.60;;;13.10;;
68938;SDS011;59064;45.294;11.816;2023-06-10T06:55:29;20.70;;;16.20;;
68938;SDS011;59064;45.294;11.816;2023-06-10T06:57:54;19.10;;;14.60;;
68938;SDS011;59064;45.294;11.816;2023-06-10T07:00:21;23.70;;;16.60;;
68938;SDS011;59064;45.294;11.816;2023-06-10T07:02:47;21.20;;;16.70;;
68938;SDS011;59064;45.294;11.816;2023-06-10T07:05:13;24.80;;;17.60;;
68938;SDS011;59064;45.294;11.816;2023-06-10T07:07:38;24.00;;;18.50;;
68938;SDS011;59064;45.294;11.816;2023-06-10T07:10:04;26.60;;;20.20;;
68938;SDS011;59064;45.294;11.816;2023-06-10T07:12:30;26.40;;;19.60;;
68938;SDS011;59064;45.294;11.816;2023-06-10T07:14:55;24.50;;;19.40;;
68938;SDS011;59064;45.294;11.816;2023-06-10T07:17:21;29.80;;;21.20;;
68938;SDS011;59064;45.294;11.816;2023-06-10T07:19:46;22.60;;;18.30;;
68938;SDS011;59064;45.294;11.816;2023-06-10T07:22:13;23.40;;;19.20;;
68938;SDS011;59064;45.294;11.816;2023-06-10T07:24:39;25.50;;;19.80;;
68938;SDS011;59064;45.294;11.816;2023-06-10T07:27:04;25.80;;;20.10;;
68938;SDS011;59064;45.294;11.816;2023-06-10T07:29:30;28.40;;;22.50;;
68938;SDS011;59064;45.294;11.816;2023-06-10T07:31:56;28.30;;;22.00;;
68938;SDS011;59064;45.294;11.816;2023-06-10T07:34:21;25.40;;;20.50;;
68938;SDS011;59064;45.294;11.816;2023-06-10T07:36:47;28.90;;;23.40;;
68938;SDS011;59064;45.294;11.816;2023-06-10T07:39:12;28.90;;;21.80;;
68938;SDS011;59064;45.294;11.816;2023-06-10T07:41:38;25.70;;;21.60;;
68938;SDS011;59064;45.294;11.816;2023-06-10T07:44:03;26.30;;;19.80;;
68938;SDS011;59064;45.294;11.816;2023-06-10T07:46:29;26.70;;;21.00;;
68938;SDS011;59064;45.294;11.816;2023-06-10T07:48:54;22.50;;;18.80;;
68938;SDS011;59064;45.294;11.816;2023-06-10T07:51:20;25.50;;;20.60;;
68938;SDS011;59064;45.294;11.816;2023-06-10T07:53:46;25.40;;;21.30;;
68938;SDS011;59064;45.294;11.816;2023-06-10T07:56:11;19.90;;;15.80;;
68938;SDS011;59064;45.294;11.816;2023-06-10T07:58:37;22.20;;;17.90;;
68938;SDS011;59064;45.294;11.816;2023-06-10T08:01:02;22.00;;;18.10;;
68938;SDS011;59064;45.294;11.816;2023-06-10T08:03:28;24.20;;;19.60;;
68938;SDS011;59064;45.294;11.816;2023-06-10T08:05:53;22.60;;;19.30;;
68938;SDS011;59064;45.294;11.816;2023-06-10T08:08:19;22.30;;;16.40;;
68938;SDS011;59064;45.294;11.816;2023-06-10T08:10:45;22.40;;;15.80;;
68938;SDS011;59064;45.294;11.816;2023-06-10T08:13:10;17.30;;;13.80;;
68938;SDS011;59064;45.294;11.816;2023-06-10T08:15:36;20.10;;;17.10;;
68938;SDS011;59064;45.294;11.816;2023-06-10T08:18:01;23.30;;;16.70;;
68938;SDS011;59064;45.294;11.816;2023-06-10T08:20:27;22.90;;;17.70;;
68938;SDS011;59064;45.294;11.816;2023-06-10T08:22:53;21.60;;;17.50;;
68938;SDS011;59064;45.294;11.816;2023-06-10T08:25:18;18.30;;;16.30;;
68938;SDS011;59064;45.294;11.816;2023-06-10T08:27:44;14.80;;;12.10;;
68938;SDS011;59064;45.294;11.816;2023-06-10T08:30:10;19.40;;;16.10;;
68938;SDS011;59064;45.294;11.816;2023-06-10T08:32:38;17.50;;;15.60;;
68938;SDS011;59064;45.294;11.816;2023-06-10T08:35:03;16.00;;;12.20;;
68938;SDS011;59064;45.294;11.816;2023-06-10T08:37:29;15.00;;;12.30;;
68938;SDS011;59064;45.294;11.816;2023-06-10T08:39:55;18.50;;;15.70;;
68938;SDS011;59064;45.294;11.816;2023-06-10T08:42:22;20.00;;;15.90;;
68938;SDS011;59064;45.294;11.816;2023-06-10T08:44:58;19.80;;;17.10;;
68938;SDS011;59064;45.294;11.816;2023-06-10T08:47:26;16.70;;;13.90;;
68938;SDS011;59064;45.294;11.816;2023-06-10T08:49:56;23.20;;;18.20;;
68938;SDS011;59064;45.294;11.816;2023-06-10T08:52:28;21.40;;;18.00;;
68938;SDS011;59064;45.294;11.816;2023-06-10T08:55:03;18.00;;;14.70;;
68938;SDS011;59064;45.294;11.816;2023-06-10T08:57:30;21.70;;;18.10;;
68938;SDS011;59064;45.294;11.816;2023-06-10T08:59:56;21.00;;;16.90;;
68938;SDS011;59064;45.294;11.816;2023-06-10T09:02:25;16.10;;;13.40;;
68938;SDS011;59064;45.294;11.816;2023-06-10T09:04:52;19.60;;;16.00;;
68938;SDS011;59064;45.294;11.816;2023-06-10T09:07:19;22.40;;;17.90;;
68938;SDS011;59064;45.294;11.816;2023-06-10T09:09:45;24.00;;;17.50;;
68938;SDS011;59064;45.294;11.816;2023-06-10T09:12:11;25.20;;;18.10;;
68938;SDS011;59064;45.294;11.816;2023-06-10T09:14:38;22.50;;;17.60;;
68938;SDS011;59064;45.294;11.816;2023-06-10T09:17:04;18.60;;;14.00;;
68938;SDS011;59064;45.294;11.816;2023-06-10T09:19:30;24.50;;;20.30;;
68938;SDS011;59064;45.294;11.816;2023-06-10T09:21:56;22.60;;;17.40;;
68938;SDS011;59064;45.294;11.816;2023-06-10T09:24:23;21.60;;;18.40;;
68938;SDS011;59064;45.294;11.816;2023-06-10T09:26:49;24.90;;;17.50;;
68938;SDS011;59064;45.294;11.816;2023-06-10T09:29:16;25.00;;;18.50;;
68938;SDS011;59064;45.294;11.816;2023-06-10T09:31:42;25.20;;;19.00;;
68938;SDS011;59064;45.294;11.816;2023-06-10T09:34:12;25.80;;;18.70;;
68938;SDS011;59064;45.294;11.816;2023-06-10T09:36:39;20.40;;;13.00;;
68938;SDS011;59064;45.294;11.816;2023-06-10T09:39:12;25.70;;;18.90;;
68938;SDS011;59064;45.294;11.816;2023-06-10T09:41:42;22.30;;;17.50;;
68938;SDS011;59064;45.294;11.816;2023-06-10T09:44:12;23.20;;;15.60;;
68938;SDS011;59064;45.294;11.816;2023-06-10T09:46:41;20.90;;;15.80;;
68938;SDS011;59064;45.294;11.816;2023-06-10T09:49:08;20.40;;;16.40;;
68938;SDS011;59064;45.294;11.816;2023-06-10T09:51:34;20.80;;;15.10;;
68938;SDS011;59064;45.294;11.816;2023-06-10T09:54:02;20.50;;;14.40;;
68938;SDS011;59064;45.294;11.816;2023-06-10T09:56:35;18.50;;;13.90;;
68938;SDS011;59064;45.294;11.816;2023-06-10T09:59:07;22.00;;;15.80;;
68938;SDS011;59064;45.294;11.816;2023-06-10T10:01:33;18.20;;;14.20;;
68938;SDS011;59064;45.294;11.816;2023-06-10T10:03:59;18.10;;;14.50;;
68938;SDS011;59064;45.294;11.816;2023-06-10T10:06:26;15.80;;;12.90;;
68938;SDS011;59064;45.294;11.816;2023-06-10T10:08:53;18.10;;;14.70;;
68938;SDS011;59064;45.294;11.816;2023-06-10T10:11:20;22.00;;;16.00;;
68938;SDS011;59064;45.294;11.816;2023-06-10T10:13:51;22.70;;;15.60;;
68938;SDS011;59064;45.294;11.816;2023-06-10T10:16:36;22.80;;;14.80;;
68938;SDS011;59064;45.294;11.816;2023-06-10T10:19:25;18.20;;;13.50;;
68938;SDS011;59064;45.294;11.816;2023-06-10T10:21:56;19.50;;;13.80;;
68938;SDS011;59064;45.294;11.816;2023-06-10T10:24:42;22.20;;;15.80;;
68938;SDS011;59064;45.294;11.816;2023-06-10T10:27:27;17.80;;;15.00;;
68938;SDS011;59064;45.294;11.816;2023-06-10T10:29:54;19.50;;;12.70;;
68938;SDS011;59064;45.294;11.816;2023-06-10T10:32:29;16.90;;;11.40;;
68938;SDS011;59064;45.294;11.816;2023-06-10T10:37:33;11.80;;;6.30;;
68938;SDS011;59064;45.294;11.816;2023-06-10T10:40:00;10.00;;;6.30;;
68938;SDS011;59064;45.294;11.816;2023-06-10T10:42:29;11.20;;;6.80;;
68938;SDS011;59064;45.294;11.816;2023-06-10T10:44:56;11.20;;;6.20;;
68938;SDS011;59064;45.294;11.816;2023-06-10T10:47:22;11.50;;;5.80;;
68938;SDS011;59064;45.294;11.816;2023-06-10T10:49:51;10.90;;;6.50;;
68938;SDS011;59064;45.294;11.816;2023-06-10T10:52:24;7.30;;;5.30;;
68938;SDS011;59064;45.294;11.816;2023-06-10T10:54:50;7.50;;;4.90;;
68938;SDS011;59064;45.294;11.816;2023-06-10T10:57:19;8.00;;;4.60;;
68938;SDS011;59064;45.294;11.816;2023-06-10T11:04:47;7.40;;;3.50;;
68938;SDS011;59064;45.294;11.816;2023-06-10T11:07:13;6.20;;;3.00;;
68938;SDS011;59064;45.294;11.816;2023-06-10T11:10:02;6.70;;;3.10;;
68938;SDS011;59064;45.294;11.816;2023-06-10T11:15:22;6.70;;;3.20;;
68938;SDS011;59064;45.294;11.816;2023-06-10T11:18:11;8.00;;;3.30;;
68938;SDS011;59064;45.294;11.816;2023-06-10T11:26:15;6.00;;;3.00;;
68938;SDS011;59064;45.294;11.816;2023-06-10T11:29:03;6.20;;;2.30;;
68938;SDS011;59064;45.294;11.816;2023-06-10T11:31:33;5.20;;;1.90;;
68938;SDS011;59064;45.294;11.816;2023-06-10T11:34:05;5.10;;;2.10;;
68938;SDS011;59064;45.294;11.816;2023-06-10T11:36:34;5.60;;;2.70;;
68938;SDS011;59064;45.294;11.816;2023-06-10T11:39:02;5.30;;;2.80;;
68938;SDS011;59064;45.294;11.816;2023-06-10T11:41:30;5.70;;;2.60;;
68938;SDS011;59064;45.294;11.816;2023-06-10T11:43:57;5.80;;;2.80;;
68938;SDS011;59064;45.294;11.816;2023-06-10T11:46:29;5.00;;;2.90;;
68938;SDS011;59064;45.294;11.816;2023-06-10T11:48:56;6.50;;;3.40;;
68938;SDS011;59064;45.294;11.816;2023-06-10T11:51:25;4.70;;;2.60;;
68938;SDS011;59064;45.294;11.816;2023-06-10T11:53:52;4.30;;;2.00;;
68938;SDS011;59064;45.294;11.816;2023-06-10T11:56:22;5.70;;;2.00;;
68938;SDS011;59064;45.294;11.816;2023-06-10T11:58:55;5.00;;;2.00;;
68938;SDS011;59064;45.294;11.816;2023-06-10T12:01:23;4.90;;;1.90;;
68938;SDS011;59064;45.294;11.816;2023-06-10T12:04:00;3.90;;;1.50;;
68938;SDS011;59064;45.294;11.816;2023-06-10T12:11:55;4.20;;;1.60;;
68938;SDS011;59064;45.294;11.816;2023-06-10T12:17:34;3.90;;;1.70;;
68938;SDS011;59064;45.294;11.816;2023-06-10T12:20:08;6.30;;;1.90;;
68938;SDS011;59064;45.294;11.816;2023-06-10T12:22:49;5.60;;;2.00;;
68938;SDS011;59064;45.294;11.816;2023-06-10T12:25:14;4.00;;;1.70;;
68938;SDS011;59064;45.294;11.816;2023-06-10T12:27:40;4.80;;;1.70;;
68938;SDS011;59064;45.294;11.816;2023-06-10T12:30:20;5.20;;;2.00;;
68938;SDS011;59064;45.294;11.816;2023-06-10T12:32:47;5.50;;;2.20;;
68938;SDS011;59064;45.294;11.816;2023-06-10T12:35:16;3.80;;;1.70;;
68938;SDS011;59064;45.294;11.816;2023-06-10T12:37:57;4.90;;;2.00;;
68938;SDS011;59064;45.294;11.816;2023-06-10T12:40:28;3.60;;;1.60;;
68938;SDS011;59064;45.294;11.816;2023-06-10T12:42:56;5.50;;;2.00;;
68938;SDS011;59064;45.294;11.816;2023-06-10T12:48:09;4.40;;;1.70;;
68938;SDS011;59064;45.294;11.816;2023-06-10T12:50:35;5.30;;;1.40;;
68938;SDS011;59064;45.294;11.816;2023-06-10T12:53:02;5.20;;;2.00;;
68938;SDS011;59064;45.294;11.816;2023-06-10T12:55:28;6.80;;;1.50;;
68938;SDS011;59064;45.294;11.816;2023-06-10T12:57:54;6.30;;;1.70;;
68938;SDS011;59064;45.294;11.816;2023-06-10T13:00:20;5.80;;;1.90;;
68938;SDS011;59064;45.294;11.816;2023-06-10T13:02:46;5.60;;;1.80;;
68938;SDS011;59064;45.294;11.816;2023-06-10T13:05:13;4.00;;;1.80;;
68938;SDS011;59064;45.294;11.816;2023-06-10T13:07:38;5.70;;;1.90;;
68938;SDS011;59064;45.294;11.816;2023-06-10T13:10:04;5.70;;;1.80;;
68938;SDS011;59064;45.294;11.816;2023-06-10T13:12:31;4.70;;;1.80;;
68938;SDS011;59064;45.294;11.816;2023-06-10T13:14:56;4.40;;;1.50;;
68938;SDS011;59064;45.294;11.816;2023-06-10T13:17:22;5.40;;;2.00;;
68938;SDS011;59064;45.294;11.816;2023-06-10T13:19:49;5.50;;;2.10;;
68938;SDS011;59064;45.294;11.816;2023-06-10T13:22:15;5.40;;;2.00;;
68938;SDS011;59064;45.294;11.816;2023-06-10T13:24:41;6.50;;;1.80;;
68938;SDS011;59064;45.294;11.816;2023-06-10T13:27:08;4.80;;;1.70;;
68938;SDS011;59064;45.294;11.816;2023-06-10T13:29:34;4.50;;;1.60;;
68938;SDS011;59064;45.294;11.816;2023-06-10T13:31:59;4.30;;;1.60;;
68938;SDS011;59064;45.294;11.816;2023-06-10T13:34:25;5.00;;;2.00;;
68938;SDS011;59064;45.294;11.816;2023-06-10T13:36:50;5.20;;;2.00;;
68938;SDS011;59064;45.294;11.816;2023-06-10T13:39:16;4.90;;;1.70;;
68938;SDS011;59064;45.294;11.816;2023-06-10T13:41:41;4.70;;;1.80;;
68938;SDS011;59064;45.294;11.816;2023-06-10T13:44:07;6.60;;;2.10;;
68938;SDS011;59064;45.294;11.816;2023-06-10T13:46:33;4.90;;;1.80;;
68938;SDS011;59064;45.294;11.816;2023-06-10T13:48:58;5.40;;;1.70;;
68938;SDS011;59064;45.294;11.816;2023-06-10T13:51:24;4.00;;;1.70;;
68938;SDS011;59064;45.294;11.816;2023-06-10T13:53:50;3.70;;;1.40;;
68938;SDS011;59064;45.294;11.816;2023-06-10T13:56:17;3.90;;;1.70;;
68938;SDS011;59064;45.294;11.816;2023-06-10T13:58:43;3.50;;;1.30;;
68938;SDS011;59064;45.294;11.816;2023-06-10T14:01:09;4.70;;;1.60;;
68938;SDS011;59064;45.294;11.816;2023-06-10T14:03:34;4.70;;;1.50;;
68938;SDS011;59064;45.294;11.816;2023-06-10T14:06:00;5.80;;;1.70;;
68938;SDS011;59064;45.294;11.816;2023-06-10T14:08:27;6.50;;;1.90;;
68938;SDS011;59064;45.294;11.816;2023-06-10T14:10:52;4.70;;;1.80;;
68938;SDS011;59064;45.294;11.816;2023-06-10T14:13:18;6.40;;;1.60;;
68938;SDS011;59064;45.294;11.816;2023-06-10T14:15:43;5.70;;;1.90;;
68938;SDS011;59064;45.294;11.816;2023-06-10T14:18:09;8.50;;;1.50;;
68938;SDS011;59064;45.294;11.816;2023-06-10T14:20:35;5.90;;;1.70;;
68938;SDS011;59064;45.294;11.816;2023-06-10T14:23:01;4.50;;;1.40;;
68938;SDS011;59064;45.294;11.816;2023-06-10T14:25:27;5.10;;;1.70;;
68938;SDS011;59064;45.294;11.816;2023-06-10T14:27:52;3.70;;;1.50;;
68938;SDS011;59064;45.294;11.816;2023-06-10T14:30:19;6.60;;;1.50;;
68938;SDS011;59064;45.294;11.816;2023-06-10T14:32:44;4.40;;;1.70;;
68938;SDS011;59064;45.294;11.816;2023-06-10T14:35:10;6.00;;;1.70;;
68938;SDS011;59064;45.294;11.816;2023-06-10T14:37:36;5.40;;;1.80;;
68938;SDS011;59064;45.294;11.816;2023-06-10T14:40:02;7.90;;;1.90;;
68938;SDS011;59064;45.294;11.816;2023-06-10T14:42:30;6.30;;;1.60;;
68938;SDS011;59064;45.294;11.816;2023-06-10T14:44:57;4.90;;;1.70;;
68938;SDS011;59064;45.294;11.816;2023-06-10T14:47:23;5.60;;;1.80;;
68938;SDS011;59064;45.294;11.816;2023-06-10T14:49:48;5.80;;;1.70;;
68938;SDS011;59064;45.294;11.816;2023-06-10T14:52:14;4.70;;;1.90;;